Time;durP1;ratioP1;P1;durP2;ratioP2;P2;SDS_P1;SDS_P2;PMS_P1;PMS_P2;Temp;Humidity;BMP_temperature;BMP_pressure;BME280_temperature;BME280_humidity;BME280_pressure;Samples;Min_cycle;Max_cycle;Signal;HPM_P1;HPM_P2
2022/10/15 00:02:16;;;;;;;;;;;15.80;99.90;;;;;;7343143;19;113180;-75
2022/10/15 00:04:43;;;;;;;;;;;15.80;99.90;;;;;;7340322;19;109890;-75
2022/10/15 00:07:10;;;;;;;;;;;15.80;99.90;;;;;;7340581;19;110919;-75
2022/10/15 00:09:38;;;;;;;;;;;15.80;99.90;;;;;;7337621;19;110022;-75
2022/10/15 00:12:05;;;;;;;;;;;15.80;99.90;;;;;;7339050;19;108970;-76
2022/10/15 00:14:31;;;;;;;;;;;15.80;99.90;;;;;;7336835;19;110869;-75
2022/10/15 00:16:58;;;;;;;;;;;15.80;99.90;;;;;;7338834;19;109676;-75
2022/10/15 00:19:25;;;;;;;;;;;15.70;99.90;;;;;;7337401;19;108767;-75
2022/10/15 00:21:52;;;;;;;;;;;15.80;99.90;;;;;;7338782;19;109621;-75
2022/10/15 00:24:19;;;;;;;;;;;15.80;99.90;;;;;;7342633;19;110065;-75
2022/10/15 00:26:46;;;;;;;;;;;15.70;99.90;;;;;;7338398;19;109322;-75
2022/10/15 00:29:13;;;;;;;;;;;15.70;99.90;;;;;;7337646;19;109351;-75
2022/10/15 00:31:40;;;;;;;;;;;15.70;99.90;;;;;;7338507;19;109355;-75
2022/10/15 00:34:06;;;;;;;;;;;15.70;99.90;;;;;;7340534;19;109325;-75
2022/10/15 00:36:35;;;;;;;;;;;15.70;99.90;;;;;;7337357;19;109702;-75
2022/10/15 00:39:03;;;;;;;;;;;15.70;99.90;;;;;;7338852;19;109616;-75
2022/10/15 00:41:39;;;;;;;;;;;15.70;99.90;;;;;;7336227;19;110492;-75
2022/10/15 00:44:21;;;;;;;;;;;15.70;99.90;;;;;;7335682;19;112293;-75
2022/10/15 00:46:49;;;;;;;;;;;15.70;99.90;;;;;;7343002;19;108793;-75
2022/10/15 00:49:27;;;;;;;;;;;15.70;99.90;;;;;;7336241;19;110345;-75
2022/10/15 00:52:17;;;;;;;;;;;15.70;99.90;;;;;;7336450;19;108279;-75
2022/10/15 00:54:51;;;;;;;;;;;15.70;99.90;;;;;;7338928;19;109100;-75
2022/10/15 00:57:18;;;;;;;;;;;15.80;99.90;;;;;;7337581;19;112066;-75
2022/10/15 00:59:51;;;;;;;;;;;15.70;99.90;;;;;;7337715;19;109115;-75
2022/10/15 01:02:19;;;;;;;;;;;15.70;99.90;;;;;;7336586;19;109231;-76
2022/10/15 01:04:46;;;;;;;;;;;15.70;99.90;;;;;;7337196;19;110186;-76
2022/10/15 01:07:13;;;;;;;;;;;15.70;99.90;;;;;;7343433;19;109154;-77
2022/10/15 01:09:43;;;;;;;;;;;15.70;99.90;;;;;;7336167;19;110375;-79
2022/10/15 01:12:16;;;;;;;;;;;15.70;99.90;;;;;;7336912;19;110194;-76
2022/10/15 01:14:48;;;;;;;;;;;15.70;99.90;;;;;;7336628;19;108411;-75
2022/10/15 01:17:18;;;;;;;;;;;15.80;99.90;;;;;;7336408;19;108895;-80
2022/10/15 01:20:03;;;;;;;;;;;15.80;99.90;;;;;;7336338;19;111255;-79
2022/10/15 01:22:49;;;;;;;;;;;15.70;99.90;;;;;;7334854;19;109127;-78
2022/10/15 01:25:16;;;;;;;;;;;15.70;99.90;;;;;;7335916;19;111679;-78
2022/10/15 01:28:05;;;;;;;;;;;15.80;99.90;;;;;;7334869;19;109854;-75
2022/10/15 01:30:40;;;;;;;;;;;15.70;99.90;;;;;;7335249;19;110655;-76
2022/10/15 01:33:13;;;;;;;;;;;15.70;99.90;;;;;;7335224;19;108436;-76
2022/10/15 01:35:53;;;;;;;;;;;15.80;99.90;;;;;;7334627;19;109223;-75
2022/10/15 01:38:29;;;;;;;;;;;15.70;99.90;;;;;;7334612;19;109468;-77
2022/10/15 01:40:58;;;;;;;;;;;15.70;99.90;;;;;;7334688;19;108927;-75
2022/10/15 01:43:34;;;;;;;;;;;15.70;99.90;;;;;;7335400;19;108985;-76
2022/10/15 01:46:04;;;;;;;;;;;15.70;99.90;;;;;;7332214;19;111983;-76
2022/10/15 01:48:33;;;;;;;;;;;15.70;99.90;;;;;;7334298;19;110538;-76
2022/10/15 01:51:01;;;;;;;;;;;15.70;99.90;;;;;;7337606;19;109435;-75
2022/10/15 01:53:29;;;;;;;;;;;15.70;99.90;;;;;;7339470;19;110023;-75
2022/10/15 01:55:57;;;;;;;;;;;15.70;99.90;;;;;;7336224;19;109340;-75
2022/10/15 01:58:25;;;;;;;;;;;15.70;99.90;;;;;;7332959;19;113224;-75
2022/10/15 02:00:54;;;;;;;;;;;15.70;99.90;;;;;;7336250;19;110103;-75
2022/10/15 02:03:21;;;;;;;;;;;15.70;99.90;;;;;;7332775;19;109672;-75
2022/10/15 02:05:57;;;;;;;;;;;15.70;99.90;;;;;;7333961;19;109594;-75
2022/10/15 02:08:37;;;;;;;;;;;15.70;99.90;;;;;;7335142;19;109690;-75
2022/10/15 02:11:14;;;;;;;;;;;15.80;99.90;;;;;;7335419;19;109140;-75
2022/10/15 02:14:00;;;;;;;;;;;15.80;99.90;;;;;;7334107;19;110207;-75
2022/10/15 02:16:43;;;;;;;;;;;15.70;99.90;;;;;;7340770;19;109655;-75
2022/10/15 02:19:19;;;;;;;;;;;15.80;99.90;;;;;;7331281;19;110415;-76
2022/10/15 02:21:48;;;;;;;;;;;15.70;99.90;;;;;;7335953;19;108432;-75
2022/10/15 02:24:22;;;;;;;;;;;15.70;99.90;;;;;;7334339;19;109146;-74
2022/10/15 02:26:55;;;;;;;;;;;15.80;99.90;;;;;;7333458;19;114841;-75
2022/10/15 02:29:24;;;;;;;;;;;15.80;99.90;;;;;;7334915;19;109075;-75
2022/10/15 02:31:52;;;;;;;;;;;15.70;99.90;;;;;;7332735;19;109969;-75
2022/10/15 02:34:21;;;;;;;;;;;15.70;99.90;;;;;;7334958;19;113876;-75
2022/10/15 02:36:48;;;;;;;;;;;15.70;99.90;;;;;;7335117;19;109847;-75
2022/10/15 02:39:17;;;;;;;;;;;15.70;99.90;;;;;;7339785;19;109443;-75
2022/10/15 02:41:45;;;;;;;;;;;15.60;99.90;;;;;;7332453;19;113142;-75
2022/10/15 02:44:12;;;;;;;;;;;15.60;99.90;;;;;;7332439;19;109841;-75
2022/10/15 02:46:39;;;;;;;;;;;15.60;99.90;;;;;;7332798;19;110416;-75
2022/10/15 02:49:06;;;;;;;;;;;15.60;99.90;;;;;;7332924;19;110324;-74
2022/10/15 02:51:34;;;;;;;;;;;15.50;99.90;;;;;;7332649;19;110031;-76
2022/10/15 02:54:02;;;;;;;;;;;15.50;99.90;;;;;;7334241;19;110500;-75
2022/10/15 02:56:29;;;;;;;;;;;15.50;99.90;;;;;;7333018;19;109313;-76
2022/10/15 02:58:56;;;;;;;;;;;15.50;99.90;;;;;;7333973;19;109926;-75
2022/10/15 03:01:23;;;;;;;;;;;15.60;99.90;;;;;;7334638;19;110555;-76
2022/10/15 03:03:50;;;;;;;;;;;15.50;99.90;;;;;;7332559;19;109124;-75
2022/10/15 03:06:17;;;;;;;;;;;15.50;99.90;;;;;;7331293;19;109904;-76
2022/10/15 03:08:44;;;;;;;;;;;15.50;99.90;;;;;;7335308;19;108858;-76
2022/10/15 03:11:11;;;;;;;;;;;15.50;99.90;;;;;;7332103;19;109593;-75
2022/10/15 03:13:38;;;;;;;;;;;15.50;99.90;;;;;;7331449;19;109310;-76
2022/10/15 03:16:05;;;;;;;;;;;15.50;99.90;;;;;;7332629;19;109481;-76
2022/10/15 03:18:33;;;;;;;;;;;15.50;99.90;;;;;;7331490;19;108890;-77
2022/10/15 03:21:05;;;;;;;;;;;15.50;99.90;;;;;;7335760;19;110255;-76
2022/10/15 03:23:32;;;;;;;;;;;15.50;99.90;;;;;;7331406;19;111539;-75
2022/10/15 03:25:58;;;;;;;;;;;15.50;99.90;;;;;;7331736;19;110472;-75
2022/10/15 03:28:25;;;;;;;;;;;15.50;99.90;;;;;;7331698;19;108875;-76
2022/10/15 03:30:52;;;;;;;;;;;15.50;99.90;;;;;;7333870;19;109580;-76
2022/10/15 03:33:19;;;;;;;;;;;15.50;99.90;;;;;;7331756;19;113920;-76
2022/10/15 03:35:51;;;;;;;;;;;15.50;99.90;;;;;;7335718;19;108145;-75
2022/10/15 03:38:19;;;;;;;;;;;15.50;99.90;;;;;;7333215;19;109211;-75
2022/10/15 03:40:45;;;;;;;;;;;15.50;99.90;;;;;;7333988;19;109165;-75
2022/10/15 03:43:12;;;;;;;;;;;15.50;99.90;;;;;;7340336;19;109362;-76
2022/10/15 03:45:39;;;;;;;;;;;15.50;99.90;;;;;;7341221;19;109974;-75
2022/10/15 03:48:06;;;;;;;;;;;15.50;99.90;;;;;;7337903;19;110894;-75
2022/10/15 03:50:33;;;;;;;;;;;15.40;99.90;;;;;;7339167;19;109039;-74
2022/10/15 03:53:04;;;;;;;;;;;15.40;99.90;;;;;;7337893;19;110133;-75
2022/10/15 03:55:31;;;;;;;;;;;15.40;99.90;;;;;;7338999;19;110522;-75
2022/10/15 03:57:58;;;;;;;;;;;15.30;99.90;;;;;;7336361;19;109333;-75
2022/10/15 04:00:25;;;;;;;;;;;15.30;99.90;;;;;;7337604;19;111072;-75
2022/10/15 04:02:52;;;;;;;;;;;15.30;99.90;;;;;;7337478;19;109482;-75
2022/10/15 04:05:19;;;;;;;;;;;15.20;99.90;;;;;;7345496;19;108340;-75
2022/10/15 04:07:46;;;;;;;;;;;15.20;99.90;;;;;;7336760;19;110638;-74
2022/10/15 04:10:13;;;;;;;;;;;15.20;99.90;;;;;;7339598;19;109749;-74
2022/10/15 04:12:40;;;;;;;;;;;15.10;99.90;;;;;;7336532;19;109230;-75
2022/10/15 04:15:07;;;;;;;;;;;15.10;99.90;;;;;;7337719;19;108989;-75
2022/10/15 04:17:34;;;;;;;;;;;15.00;99.90;;;;;;7335757;19;110335;-75
2022/10/15 04:20:01;;;;;;;;;;;15.00;99.90;;;;;;7337009;19;110796;-75
2022/10/15 04:22:28;;;;;;;;;;;15.00;99.90;;;;;;7336411;19;108514;-75
2022/10/15 04:24:54;;;;;;;;;;;14.90;99.90;;;;;;7337321;19;114776;-75
2022/10/15 04:27:21;;;;;;;;;;;14.80;99.90;;;;;;7342920;19;110620;-75
2022/10/15 04:29:48;;;;;;;;;;;14.80;99.90;;;;;;7337638;19;109610;-75
2022/10/15 04:32:15;;;;;;;;;;;14.80;99.90;;;;;;7336602;19;110225;-75
2022/10/15 04:34:44;;;;;;;;;;;14.80;99.90;;;;;;7340419;19;109622;-75
2022/10/15 04:37:11;;;;;;;;;;;14.90;99.90;;;;;;7338172;19;109008;-75
2022/10/15 04:39:38;;;;;;;;;;;14.90;99.90;;;;;;7334882;19;113004;-75
2022/10/15 04:42:05;;;;;;;;;;;14.90;99.90;;;;;;7338759;19;109020;-75
2022/10/15 04:44:32;;;;;;;;;;;14.90;99.90;;;;;;7336779;19;110046;-75
2022/10/15 04:47:00;;;;;;;;;;;14.90;99.90;;;;;;7337359;19;111470;-75
2022/10/15 04:49:26;;;;;;;;;;;14.90;99.90;;;;;;7342787;19;109766;-75
2022/10/15 04:51:53;;;;;;;;;;;14.90;99.90;;;;;;7337690;19;109647;-74
2022/10/15 04:54:20;;;;;;;;;;;14.90;99.90;;;;;;7336076;19;109135;-75
2022/10/15 04:56:47;;;;;;;;;;;14.90;99.90;;;;;;7337772;19;109621;-75
2022/10/15 04:59:14;;;;;;;;;;;14.90;99.90;;;;;;7335486;19;109889;-69
2022/10/15 05:01:41;;;;;;;;;;;14.90;99.90;;;;;;7336340;19;109822;-68
2022/10/15 05:04:11;;;;;;;;;;;15.00;99.90;;;;;;7335457;19;112403;-68
2022/10/15 05:06:39;;;;;;;;;;;14.90;99.90;;;;;;7337127;19;110383;-68
2022/10/15 05:09:06;;;;;;;;;;;14.90;99.90;;;;;;7337952;19;108948;-68
2022/10/15 05:11:34;;;;;;;;;;;14.90;99.90;;;;;;7341248;19;113546;-68
2022/10/15 05:14:01;;;;;;;;;;;14.90;99.90;;;;;;7337012;19;109561;-68
2022/10/15 05:16:29;;;;;;;;;;;15.00;99.90;;;;;;7333951;19;108826;-68
2022/10/15 05:18:57;;;;;;;;;;;15.00;99.90;;;;;;7335543;19;109318;-68
2022/10/15 05:21:24;;;;;;;;;;;15.00;99.90;;;;;;7336834;19;110468;-68
2022/10/15 05:23:51;;;;;;;;;;;15.00;99.90;;;;;;7336541;19;108751;-69
2022/10/15 05:26:20;;;;;;;;;;;15.00;99.90;;;;;;7333111;19;110863;-68
2022/10/15 05:28:47;;;;;;;;;;;15.00;99.90;;;;;;7338632;19;108719;-68
2022/10/15 05:31:15;;;;;;;;;;;15.00;99.90;;;;;;7340810;19;108392;-68
2022/10/15 05:33:45;;;;;;;;;;;15.00;99.90;;;;;;7334614;19;111254;-69
2022/10/15 05:36:12;;;;;;;;;;;15.00;99.90;;;;;;7338073;19;108857;-68
2022/10/15 05:38:39;;;;;;;;;;;15.00;99.90;;;;;;7335442;19;109451;-68
2022/10/15 05:41:06;;;;;;;;;;;15.00;99.90;;;;;;7338742;19;110128;-68
2022/10/15 05:43:33;;;;;;;;;;;15.00;99.90;;;;;;7334369;19;108718;-68
2022/10/15 05:46:06;;;;;;;;;;;15.00;99.90;;;;;;7335568;19;108929;-69
2022/10/15 05:48:33;;;;;;;;;;;15.00;99.90;;;;;;7334809;19;108932;-69
2022/10/15 05:51:03;;;;;;;;;;;14.90;99.90;;;;;;7334233;19;108538;-69
2022/10/15 05:53:30;;;;;;;;;;;14.90;99.90;;;;;;7339695;19;110337;-69
2022/10/15 05:55:57;;;;;;;;;;;15.00;99.90;;;;;;7336436;19;108738;-68
2022/10/15 05:58:28;;;;;;;;;;;15.00;99.90;;;;;;7333583;19;109338;-68
2022/10/15 06:01:03;;;;;;;;;;;14.90;99.90;;;;;;7337101;19;108850;-71
2022/10/15 06:03:30;;;;;;;;;;;14.90;99.90;;;;;;7335854;19;109162;-69
2022/10/15 06:05:57;;;;;;;;;;;14.80;99.90;;;;;;7335566;19;109200;-69
2022/10/15 06:08:24;;;;;;;;;;;14.70;99.90;;;;;;7336963;19;110504;-68
2022/10/15 06:10:51;;;;;;;;;;;14.70;99.90;;;;;;7335516;19;109753;-68
2022/10/15 06:13:18;;;;;;;;;;;14.60;99.90;;;;;;7332222;19;109846;-69
2022/10/15 06:15:45;;;;;;;;;;;14.60;99.90;;;;;;7339303;19;109144;-69
2022/10/15 06:18:15;;;;;;;;;;;14.60;99.90;;;;;;7334112;19;110090;-68
2022/10/15 06:20:42;;;;;;;;;;;14.60;99.90;;;;;;7335925;19;108368;-69
2022/10/15 06:23:10;;;;;;;;;;;14.60;99.90;;;;;;7335662;19;108665;-68
2022/10/15 06:25:37;;;;;;;;;;;14.60;99.90;;;;;;7334869;19;109618;-68
2022/10/15 06:28:05;;;;;;;;;;;14.60;99.90;;;;;;7334082;19;108532;-68
2022/10/15 06:30:32;;;;;;;;;;;14.60;99.90;;;;;;7333645;19;109191;-68
2022/10/15 06:32:59;;;;;;;;;;;14.70;99.90;;;;;;7333750;19;109317;-68
2022/10/15 06:35:29;;;;;;;;;;;14.70;99.90;;;;;;7334330;19;109918;-68
2022/10/15 06:37:58;;;;;;;;;;;14.70;99.90;;;;;;7338860;19;108749;-68
2022/10/15 06:40:29;;;;;;;;;;;14.70;99.90;;;;;;7334738;19;108858;-68
2022/10/15 06:43:04;;;;;;;;;;;14.70;99.90;;;;;;7333367;19;108843;-72
2022/10/15 06:45:31;;;;;;;;;;;14.70;99.90;;;;;;7328777;19;112795;-67
2022/10/15 06:47:58;;;;;;;;;;;14.80;99.90;;;;;;7333840;19;108307;-66
2022/10/15 06:50:25;;;;;;;;;;;14.70;99.90;;;;;;7333642;19;109877;-67
2022/10/15 06:52:52;;;;;;;;;;;14.80;99.90;;;;;;7333125;19;109120;-67
2022/10/15 06:55:19;;;;;;;;;;;14.80;99.90;;;;;;7334779;19;108998;-67
2022/10/15 06:57:47;;;;;;;;;;;14.80;99.90;;;;;;7334743;19;109231;-67
2022/10/15 07:00:14;;;;;;;;;;;14.80;99.90;;;;;;7338122;19;109706;-68
2022/10/15 07:02:41;;;;;;;;;;;14.90;99.90;;;;;;7336113;19;109433;-67
2022/10/15 07:05:08;;;;;;;;;;;14.90;99.90;;;;;;7335089;19;110479;-67
2022/10/15 07:07:35;;;;;;;;;;;15.00;99.90;;;;;;7334839;19;109667;-67
2022/10/15 07:10:02;;;;;;;;;;;15.00;99.90;;;;;;7335083;19;109307;-67
2022/10/15 07:12:29;;;;;;;;;;;15.10;99.90;;;;;;7335319;19;109984;-67
2022/10/15 07:14:56;;;;;;;;;;;15.10;99.90;;;;;;7334634;19;108621;-67
2022/10/15 07:17:23;;;;;;;;;;;15.10;99.90;;;;;;7334666;19;108949;-67
2022/10/15 07:19:50;;;;;;;;;;;15.10;99.90;;;;;;7342524;19;110964;-67
2022/10/15 07:22:17;;;;;;;;;;;15.10;99.90;;;;;;7346696;19;109279;-67
2022/10/15 07:24:44;;;;;;;;;;;15.20;99.90;;;;;;7341186;19;109248;-67
2022/10/15 07:27:10;;;;;;;;;;;15.10;99.90;;;;;;7340721;19;108399;-67
2022/10/15 07:29:45;;;;;;;;;;;15.20;99.90;;;;;;7340420;19;109596;-67
2022/10/15 07:32:12;;;;;;;;;;;15.20;99.90;;;;;;7338541;19;110195;-67
2022/10/15 07:34:38;;;;;;;;;;;15.30;99.90;;;;;;7341874;19;108527;-67
2022/10/15 07:37:05;;;;;;;;;;;15.30;99.90;;;;;;7341233;19;109856;-67
2022/10/15 07:39:32;;;;;;;;;;;15.40;99.90;;;;;;7339574;19;110383;-67
2022/10/15 07:42:04;;;;;;;;;;;15.40;99.90;;;;;;7345410;19;109812;-68
2022/10/15 07:44:31;;;;;;;;;;;15.40;99.90;;;;;;7334178;19;109115;-67
2022/10/15 07:46:58;;;;;;;;;;;15.50;99.90;;;;;;7339475;19;108604;-67
2022/10/15 07:49:25;;;;;;;;;;;15.50;99.90;;;;;;7339565;19;110139;-67
2022/10/15 07:51:52;;;;;;;;;;;15.60;99.90;;;;;;7338884;19;109309;-67
2022/10/15 07:54:18;;;;;;;;;;;15.60;99.90;;;;;;7339549;19;109011;-67
2022/10/15 07:56:45;;;;;;;;;;;15.60;99.90;;;;;;7338040;19;108632;-67
2022/10/15 07:59:12;;;;;;;;;;;15.70;99.90;;;;;;7340100;19;109463;-67
2022/10/15 08:01:39;;;;;;;;;;;15.70;99.90;;;;;;7339644;19;109090;-67
2022/10/15 08:04:06;;;;;;;;;;;15.70;99.90;;;;;;7342822;19;111275;-67
2022/10/15 08:06:33;;;;;;;;;;;15.80;99.90;;;;;;7338862;19;109643;-67
2022/10/15 08:09:00;;;;;;;;;;;15.80;99.90;;;;;;7338617;19;109212;-67
2022/10/15 08:11:27;;;;;;;;;;;15.90;99.90;;;;;;7337774;19;109777;-67
2022/10/15 08:13:54;;;;;;;;;;;15.90;99.90;;;;;;7338879;19;109048;-67
2022/10/15 08:16:20;;;;;;;;;;;15.90;99.90;;;;;;7340171;19;109354;-67
2022/10/15 08:18:47;;;;;;;;;;;16.00;99.90;;;;;;7340226;19;109707;-67
2022/10/15 08:21:14;;;;;;;;;;;16.00;99.90;;;;;;7339201;19;108784;-67
2022/10/15 08:23:41;;;;;;;;;;;16.00;99.90;;;;;;7339995;19;110508;-67
2022/10/15 08:26:08;;;;;;;;;;;16.10;99.90;;;;;;7345201;19;110642;-67
2022/10/15 08:28:35;;;;;;;;;;;16.20;99.90;;;;;;7338245;19;109935;-68
2022/10/15 08:31:02;;;;;;;;;;;16.30;99.90;;;;;;7337577;19;109098;-68
2022/10/15 08:33:32;;;;;;;;;;;16.40;99.90;;;;;;7337688;19;108703;-67
2022/10/15 08:35:59;;;;;;;;;;;16.50;99.90;;;;;;7337884;19;109532;-67
2022/10/15 08:38:26;;;;;;;;;;;16.60;99.90;;;;;;7335619;19;109190;-68
2022/10/15 08:40:54;;;;;;;;;;;16.60;99.90;;;;;;7339462;19;109268;-67
2022/10/15 08:43:27;;;;;;;;;;;16.60;99.90;;;;;;7338256;19;111655;-67
2022/10/15 08:45:58;;;;;;;;;;;16.60;99.90;;;;;;7339218;19;110217;-67
2022/10/15 08:48:36;;;;;;;;;;;16.60;99.90;;;;;;7343504;19;108799;-67
2022/10/15 08:51:15;;;;;;;;;;;16.60;99.90;;;;;;7338876;19;109354;-67
2022/10/15 08:53:48;;;;;;;;;;;16.70;99.90;;;;;;7340446;19;108881;-67
2022/10/15 08:56:25;;;;;;;;;;;16.70;99.90;;;;;;7339244;19;109388;-67
2022/10/15 08:58:56;;;;;;;;;;;16.70;99.90;;;;;;7340735;19;109695;-67
2022/10/15 09:01:30;;;;;;;;;;;16.80;99.90;;;;;;7337335;19;108318;-67
2022/10/15 09:04:03;;;;;;;;;;;16.80;99.90;;;;;;7340061;19;109107;-67
2022/10/15 09:06:34;;;;;;;;;;;16.90;99.90;;;;;;7335159;19;110361;-67
2022/10/15 09:09:09;;;;;;;;;;;16.90;99.90;;;;;;7337259;19;108879;-67
2022/10/15 09:11:39;;;;;;;;;;;17.00;99.90;;;;;;7344049;19;108997;-67
2022/10/15 09:14:10;;;;;;;;;;;17.00;99.90;;;;;;7338226;19;110608;-67
2022/10/15 09:16:38;;;;;;;;;;;17.10;99.90;;;;;;7338492;19;109123;-67
2022/10/15 09:19:10;;;;;;;;;;;17.10;99.90;;;;;;7337111;19;110502;-67
2022/10/15 09:21:37;;;;;;;;;;;17.10;99.90;;;;;;7339432;19;109352;-67
2022/10/15 09:24:04;;;;;;;;;;;17.20;99.90;;;;;;7337858;19;109036;-67
2022/10/15 09:26:51;;;;;;;;;;;17.20;99.90;;;;;;7336041;19;109400;-67
2022/10/15 09:29:31;;;;;;;;;;;17.20;99.90;;;;;;7337071;19;109122;-67
2022/10/15 09:32:01;;;;;;;;;;;17.20;99.90;;;;;;7342149;19;109303;-67
2022/10/15 09:34:30;;;;;;;;;;;17.20;99.90;;;;;;7336977;19;108286;-67
2022/10/15 09:37:01;;;;;;;;;;;17.30;99.90;;;;;;7337641;19;109010;-66
2022/10/15 09:39:37;;;;;;;;;;;17.30;99.90;;;;;;7335599;19;111524;-66
2022/10/15 09:42:13;;;;;;;;;;;17.30;99.90;;;;;;7337198;19;109105;-66
2022/10/15 09:44:42;;;;;;;;;;;17.40;99.90;;;;;;7339472;19;109585;-66
2022/10/15 09:47:29;;;;;;;;;;;17.50;99.90;;;;;;7337525;19;110203;-67
2022/10/15 09:49:56;;;;;;;;;;;17.50;99.90;;;;;;7336894;19;108760;-66
2022/10/15 09:52:38;;;;;;;;;;;17.50;99.90;;;;;;7336214;19;108422;-66
2022/10/15 09:55:27;;;;;;;;;;;17.50;99.90;;;;;;7340743;19;109632;-66
2022/10/15 09:57:57;;;;;;;;;;;17.60;99.90;;;;;;7332713;19;109537;-66
2022/10/15 10:00:24;;;;;;;;;;;17.70;99.90;;;;;;7335034;19;109345;-67
2022/10/15 10:03:05;;;;;;;;;;;17.80;99.90;;;;;;7334469;19;108506;-67
2022/10/15 10:05:35;;;;;;;;;;;17.80;99.90;;;;;;7336391;19;109506;-66
2022/10/15 10:08:21;;;;;;;;;;;17.90;99.90;;;;;;7335952;19;109711;-67
2022/10/15 10:10:54;;;;;;;;;;;18.00;99.90;;;;;;7337699;19;109452;-66
2022/10/15 10:13:31;;;;;;;;;;;18.00;99.90;;;;;;7336372;19;110009;-67
2022/10/15 10:16:03;;;;;;;;;;;18.00;99.90;;;;;;7335522;19;111262;-66
2022/10/15 10:18:31;;;;;;;;;;;18.10;99.90;;;;;;7340796;19;108493;-66
2022/10/15 10:21:02;;;;;;;;;;;18.10;99.90;;;;;;7335275;19;109285;-66
2022/10/15 10:23:38;;;;;;;;;;;18.20;99.90;;;;;;7333461;19;108680;-67
2022/10/15 10:26:06;;;;;;;;;;;18.20;99.90;;;;;;7334892;19;111836;-66
2022/10/15 10:28:35;;;;;;;;;;;18.30;99.90;;;;;;7334619;19;109808;-66
2022/10/15 10:31:09;;;;;;;;;;;18.40;99.90;;;;;;7335738;19;108915;-66
2022/10/15 10:33:39;;;;;;;;;;;18.40;99.90;;;;;;7335552;19;110065;-67
2022/10/15 10:36:06;;;;;;;;;;;18.50;99.90;;;;;;7335353;19;111958;-66
2022/10/15 10:38:35;;;;;;;;;;;18.60;99.90;;;;;;7336116;19;108484;-66
2022/10/15 10:41:07;;;;;;;;;;;18.60;99.90;;;;;;7338809;19;108812;-67
2022/10/15 10:43:54;;;;;;;;;;;18.70;99.90;;;;;;7333926;19;109023;-66
2022/10/15 10:46:23;;;;;;;;;;;18.70;99.90;;;;;;7333855;19;109432;-66
2022/10/15 10:48:51;;;;;;;;;;;18.80;99.90;;;;;;7334878;19;109352;-66
2022/10/15 10:51:20;;;;;;;;;;;18.70;99.90;;;;;;7334568;19;108904;-66
2022/10/15 10:53:55;;;;;;;;;;;18.80;99.90;;;;;;7332999;19;110100;-67
2022/10/15 10:56:24;;;;;;;;;;;18.80;99.90;;;;;;7331827;19;109917;-66
2022/10/15 10:58:54;;;;;;;;;;;18.80;99.90;;;;;;7335237;19;108390;-66
2022/10/15 11:01:21;;;;;;;;;;;18.80;99.90;;;;;;7332468;19;108575;-66
2022/10/15 11:03:50;;;;;;;;;;;18.80;99.90;;;;;;7339232;19;109119;-67
2022/10/15 11:06:32;;;;;;;;;;;18.80;99.90;;;;;;7333445;19;108246;-67
2022/10/15 11:09:01;;;;;;;;;;;18.80;99.90;;;;;;7336475;19;109387;-66
2022/10/15 11:11:39;;;;;;;;;;;18.80;99.90;;;;;;7332527;19;109787;-66
2022/10/15 11:14:24;;;;;;;;;;;18.80;99.90;;;;;;7334418;19;108743;-66
2022/10/15 11:16:51;;;;;;;;;;;18.80;99.90;;;;;;7334403;19;109213;-67
2022/10/15 11:19:23;;;;;;;;;;;18.80;99.90;;;;;;7334245;19;109784;-66
2022/10/15 11:22:13;;;;;;;;;;;18.80;99.90;;;;;;7334607;19;109490;-67
2022/10/15 11:24:58;;;;;;;;;;;18.80;99.90;;;;;;7334996;19;109392;-66
2022/10/15 11:27:39;;;;;;;;;;;18.80;99.90;;;;;;7337454;19;108985;-67
2022/10/15 11:30:11;;;;;;;;;;;18.80;99.90;;;;;;7333519;19;108794;-67
2022/10/15 11:32:51;;;;;;;;;;;18.80;99.90;;;;;;7336746;19;109924;-66
2022/10/15 11:35:44;;;;;;;;;;;18.80;99.90;;;;;;7333498;19;108344;-67
2022/10/15 11:38:38;;;;;;;;;;;18.70;99.90;;;;;;7333968;19;109894;-66
2022/10/15 11:41:17;;;;;;;;;;;18.70;99.90;;;;;;7333476;19;108655;-66
2022/10/15 11:43:59;;;;;;;;;;;18.80;99.90;;;;;;7332502;19;108655;-66
2022/10/15 11:46:28;;;;;;;;;;;18.80;99.90;;;;;;7329781;19;112343;-67
2022/10/15 11:49:15;;;;;;;;;;;18.80;99.90;;;;;;7338819;19;108825;-66
2022/10/15 11:51:59;;;;;;;;;;;18.80;99.90;;;;;;7332005;19;109617;-68
2022/10/15 11:54:28;;;;;;;;;;;18.80;99.90;;;;;;7332774;19;108321;-67
2022/10/15 11:56:55;;;;;;;;;;;18.80;99.90;;;;;;7333762;19;111112;-69
2022/10/15 11:59:25;;;;;;;;;;;18.90;99.90;;;;;;7332853;19;110239;-67
2022/10/15 12:01:53;;;;;;;;;;;19.10;99.90;;;;;;7334048;19;109315;-66
2022/10/15 12:04:20;;;;;;;;;;;19.20;99.90;;;;;;7336220;19;110273;-66
2022/10/15 12:06:51;;;;;;;;;;;19.30;99.90;;;;;;7343302;19;109293;-66
2022/10/15 12:09:23;;;;;;;;;;;19.40;99.90;;;;;;7339838;19;109487;-67
2022/10/15 12:11:54;;;;;;;;;;;19.40;99.90;;;;;;7346368;19;108782;-67
2022/10/15 12:14:29;;;;;;;;;;;19.50;99.90;;;;;;7338563;19;108722;-66
2022/10/15 12:17:04;;;;;;;;;;;19.50;99.90;;;;;;7341291;19;110235;-67
2022/10/15 12:19:53;;;;;;;;;;;19.60;99.90;;;;;;7338322;19;109193;-66
2022/10/15 12:22:38;;;;;;;;;;;19.70;99.90;;;;;;7337452;19;108257;-66
2022/10/15 12:25:25;;;;;;;;;;;19.90;99.90;;;;;;7339750;19;108400;-66
2022/10/15 12:27:58;;;;;;;;;;;19.90;99.90;;;;;;7339152;19;109564;-66
2022/10/15 12:30:26;;;;;;;;;;;19.90;99.90;;;;;;7338191;19;110061;-67
2022/10/15 12:32:53;;;;;;;;;;;19.90;99.90;;;;;;7338626;19;109606;-67
2022/10/15 12:35:21;;;;;;;;;;;19.90;99.90;;;;;;7345742;19;110280;-67
2022/10/15 12:37:49;;;;;;;;;;;20.00;99.90;;;;;;7341135;19;110531;-67
2022/10/15 12:40:21;;;;;;;;;;;19.90;99.90;;;;;;7338056;19;109393;-66
2022/10/15 12:42:49;;;;;;;;;;;19.90;99.90;;;;;;7339763;19;108884;-67
2022/10/15 12:45:19;;;;;;;;;;;20.00;99.90;;;;;;7337455;19;109204;-67
2022/10/15 12:47:55;;;;;;;;;;;20.10;99.90;;;;;;7337711;19;110245;-67
2022/10/15 12:50:23;;;;;;;;;;;20.10;99.90;;;;;;7339152;19;108650;-67
2022/10/15 12:52:50;;;;;;;;;;;20.00;99.90;;;;;;7340884;19;108643;-66
2022/10/15 12:55:20;;;;;;;;;;;20.00;99.90;;;;;;7336654;19;109511;-66
2022/10/15 12:57:47;;;;;;;;;;;19.90;99.90;;;;;;7345288;19;109562;-67
2022/10/15 13:00:23;;;;;;;;;;;19.90;99.90;;;;;;7336848;19;110695;-66
2022/10/15 13:02:51;;;;;;;;;;;19.90;99.90;;;;;;7340217;19;109532;-67
2022/10/15 13:05:25;;;;;;;;;;;20.00;99.90;;;;;;7334516;19;109295;-66
2022/10/15 13:07:54;;;;;;;;;;;20.10;99.90;;;;;;7337327;19;111770;-67
2022/10/15 13:10:23;;;;;;;;;;;20.10;99.90;;;;;;7337269;19;108470;-68
2022/10/15 13:12:55;;;;;;;;;;;20.30;99.90;;;;;;7338485;19;109520;-67
2022/10/15 13:15:26;;;;;;;;;;;20.40;99.90;;;;;;7336661;19;109290;-68
2022/10/15 13:17:57;;;;;;;;;;;20.40;99.90;;;;;;7336917;19;108626;-67
2022/10/15 13:20:37;;;;;;;;;;;20.30;99.90;;;;;;7341295;19;108486;-67
2022/10/15 13:23:15;;;;;;;;;;;20.30;99.90;;;;;;7338360;19;109167;-67
2022/10/15 13:26:11;;;;;;;;;;;20.40;99.90;;;;;;7338881;19;111667;-67
2022/10/15 13:28:40;;;;;;;;;;;20.50;99.90;;;;;;7338866;19;110433;-67
2022/10/15 13:31:19;;;;;;;;;;;20.80;99.90;;;;;;7338125;19;109476;-65
2022/10/15 13:33:52;;;;;;;;;;;20.80;99.90;;;;;;7334768;19;108490;-67
2022/10/15 13:36:20;;;;;;;;;;;20.80;99.90;;;;;;7337289;19;110360;-67
2022/10/15 13:39:04;;;;;;;;;;;20.90;99.90;;;;;;7337488;19;109481;-67
2022/10/15 13:41:39;;;;;;;;;;;20.90;99.90;;;;;;7334590;19;108782;-67
2022/10/15 13:44:18;;;;;;;;;;;21.00;99.90;;;;;;7341662;19;109673;-67
2022/10/15 13:46:45;;;;;;;;;;;21.00;99.90;;;;;;7337474;19;108360;-66
2022/10/15 13:49:12;;;;;;;;;;;21.10;99.90;;;;;;7334490;19;109230;-67
2022/10/15 13:51:49;;;;;;;;;;;21.00;99.90;;;;;;7337584;19;108321;-67
2022/10/15 13:54:27;;;;;;;;;;;21.00;99.90;;;;;;7335411;19;108686;-67
2022/10/15 13:56:57;;;;;;;;;;;21.00;99.90;;;;;;7337582;19;112481;-67
2022/10/15 13:59:26;;;;;;;;;;;20.90;99.90;;;;;;7335637;19;111181;-67
2022/10/15 14:01:59;;;;;;;;;;;20.90;99.90;;;;;;7335063;19;108845;-66
2022/10/15 14:04:28;;;;;;;;;;;20.90;99.90;;;;;;7340750;19;109674;-67
2022/10/15 14:07:01;;;;;;;;;;;20.90;99.90;;;;;;7337825;19;114635;-67
2022/10/15 14:09:36;;;;;;;;;;;20.90;99.90;;;;;;7336398;19;109880;-67
2022/10/15 14:12:06;;;;;;;;;;;20.80;99.90;;;;;;7337753;19;108357;-67
2022/10/15 14:14:40;;;;;;;;;;;20.80;99.90;;;;;;7334949;19;108430;-67
2022/10/15 14:17:08;;;;;;;;;;;20.70;99.90;;;;;;7333797;19;110791;-73
2022/10/15 14:19:37;;;;;;;;;;;20.90;99.90;;;;;;7333734;19;109910;-75
2022/10/15 14:22:04;;;;;;;;;;;20.90;99.90;;;;;;7334858;19;109145;-73
2022/10/15 14:24:38;;;;;;;;;;;20.90;99.90;;;;;;7332368;19;110668;-73